TAFOR
Diposting tanggal: 10 Juni 2019

Pukul : 06 - 18 UTC

Isi :

TAF WAGI 200500Z 2006/2018 13008KT 9000 SCT012 TEMPO 2007/2008 4000 -RA BKN012=